Bienenfarm Airport


Codes: EDOI/
Name: Bienenfarm Airport
City: Nauen
Country: Germany
Elevation: 131 ft.

Photos at Bienenfarm Airport


   Photos courtesy of SpottingLog. You can add your own sightings and photos by signing up for a free trial today.



No photos found.

Weather at Bienenfarm Airport


Time (UTC)DescriptionTempratureWindCloud coverageVisibilityPressureHumidity
26-Jun-2024 00:00Few Clouds19°C9 mph, E18%10000m1016hPa73%
26-Jun-2024 03:00Clear Sky17°C9 mph, E6%10000m1015hPa82%
26-Jun-2024 06:00Clear Sky20°C11 mph, E0%10000m1014hPa71%
26-Jun-2024 09:00Clear Sky26°C11 mph, E0%10000m1013hPa52%
26-Jun-2024 12:00Clear Sky29°C9 mph, E0%10000m1012hPa43%
26-Jun-2024 15:00Few Clouds31°C7 mph, E19%10000m1010hPa39%
26-Jun-2024 18:00Scattered Clouds27°C9 mph, NE38%10000m1009hPa57%
26-Jun-2024 21:00Overcast Clouds24°C11 mph, E88%10000m1010hPa66%
27-Jun-2024 00:00Light Rain21°C7 mph, E93%10000m1010hPa78%
27-Jun-2024 03:00Light Rain19°C7 mph, E100%10000m1009hPa83%
27-Jun-2024 06:00Overcast Clouds23°C7 mph, E98%10000m1009hPa71%
27-Jun-2024 09:00Broken Clouds28°C9 mph, SE80%10000m1009hPa52%
27-Jun-2024 12:00Broken Clouds32°C9 mph, SE74%10000m1007hPa40%
27-Jun-2024 15:00Scattered Clouds32°C13 mph, S28%10000m1006hPa37%
27-Jun-2024 18:00Scattered Clouds28°C11 mph, S30%10000m1006hPa54%
27-Jun-2024 21:00Light Rain22°C7 mph, W50%10000m1008hPa84%
28-Jun-2024 00:00Moderate Rain19°C4 mph, W45%10000m1009hPa94%
28-Jun-2024 03:00Scattered Clouds19°C7 mph, SW38%10000m1009hPa96%
28-Jun-2024 06:00Broken Clouds22°C11 mph, SW69%10000m1011hPa82%
28-Jun-2024 09:00Broken Clouds23°C13 mph, W57%10000m1013hPa65%
28-Jun-2024 12:00Broken Clouds25°C18 mph, W71%10000m1014hPa42%
28-Jun-2024 15:00Clear Sky24°C16 mph, W0%10000m1016hPa40%
28-Jun-2024 18:00Clear Sky21°C11 mph, W4%10000m1017hPa54%
28-Jun-2024 21:00Few Clouds15°C4 mph, N11%10000m1019hPa78%
29-Jun-2024 00:00Clear Sky14°C2 mph, NW7%10000m1020hPa85%
29-Jun-2024 03:00Clear Sky13°C2 mph, SE8%10000m1020hPa88%
29-Jun-2024 06:00Few Clouds18°C4 mph, SE23%10000m1019hPa69%
29-Jun-2024 09:00Few Clouds23°C7 mph, SE17%10000m1018hPa50%
29-Jun-2024 12:00Few Clouds27°C9 mph, SE12%10000m1015hPa36%
29-Jun-2024 15:00Few Clouds29°C9 mph, SE19%10000m1012hPa32%
29-Jun-2024 18:00Few Clouds27°C4 mph, SE15%10000m1010hPa48%
29-Jun-2024 21:00Light Rain20°C11 mph, E14%10000m1007hPa71%
30-Jun-2024 00:00Light Rain20°C7 mph, E57%10000m1005hPa88%
30-Jun-2024 03:00Moderate Rain19°C2 mph, SE100%10000m1004hPa96%
30-Jun-2024 06:00Light Rain21°C4 mph, SE92%10000m1003hPa88%
30-Jun-2024 09:00Broken Clouds27°C18 mph, SW55%10000m1003hPa60%
30-Jun-2024 12:00Broken Clouds27°C20 mph, SW60%10000m1003hPa53%
30-Jun-2024 15:00Broken Clouds21°C22 mph, W62%10000m1006hPa68%
30-Jun-2024 18:00Broken Clouds17°C16 mph, W79%10000m1008hPa76%
30-Jun-2024 21:00Broken Clouds14°C9 mph, SW79%10000m1008hPa78%